Edgartown, MA

4:16 AM EDT on August 20, 2014 (GMT -0400)
Flying skunk farm | Change Station
CLOSE
Current Station
Personal Weather Station
Location: west tisbury, MA
Elevation: 81 ft
Nearby Weather Stations

Elev 81 ft 41.41 °N, 70.63 °W | Updated 40 seconds ago

Scattered Clouds
Scattered Clouds
50.9 °F
Feels Like 50.9 °F
N
0.0
Wind Variable Wind from SSW
Gusts 0.0 mph

Today
High -- | Low -- °F
--% Chance of Precip.
Yesterday
High -- | Low -- °F
Precip. -- in
5:56 AM 7:34 PM
Waning Crescent, 23% visible
Pressure 29.97 in
Visibility 9.0 miles
Clouds Few 3900 ft
Few 29000 ft
Scattered Clouds 31000 ft
Dew Point 44 °F
Humidity 77%
Rainfall 0.00 in
Snow Depth Not available.
UV 0 out of 12
Pollen 9.60 out of 12
Ozone Good
Flu Activity Not available.
METAR KFMH 200755Z AUTO 00000KT 9SM FEW039 FEW290 SCT310 12/11 A2997 RMK AO2

More Conditions Fewer Conditions

Pressure 29.97 in
Visibility 9.0 miles
Clouds Few 3900 ft
Few 29000 ft
Scattered Clouds 31000 ft
Dew Point 44 °F
Humidity 77%
Rainfall 0.00 in
Snow Depth Not available.
UV 0 out of 12
Pollen 9.60 out of 12
Ozone Good
Flu Activity Not available.
METAR KFMH 200755Z AUTO 00000KT 9SM FEW039 FEW290 SCT310 12/11 A2997 RMK AO2

More Conditions Fewer Conditions

10-Day Weather Forecast

Almanac

Astronomy

Aug. 20, 2014 Rise Set
Actual Time 5:56 AM EDT 7:34 PM EDT
Civil Twilight 5:27 AM EDT 8:03 PM EDT
Nautical Twilight 4:51 AM EDT 8:38 PM EDT
Astronomical Twilight 4:13 AM EDT 9:16 PM EDT
Moon 1:32 AM EDT 4:18 PM EDT
Length of Visible Light 14h 36m
Length of Day
13h 37m
Tomorrow will be 2m 30s shorter.
Waning Crescent, 23% of the Moon is Illuminated
Today
Waning Crescent
Aug 25
New
Sep 2
First Quarter
Sep 8
Full
Sep 15
Last Quarter

Today's Extremes

State Highs State Lows

Community

WunderPhotos

Upload Photos

1,745,601 photos uploaded!

Nearby

Air Quality

  Air Quality AQ Index Pollutant
Yesterday Good
OZONE
Current Good
OZONE
Wednesday Good
PM2.5
Wednesday Good
OZONE

Snow Depth

Station Depth Elevation
No new snow has been reported.

Earthquake Activity

City Distance Mag. Time & Date
Deep River Center, Connecticut 97 miles 2.7 3:09 AM EDT
2014-08-14
Minimum magnitude displayed is 2.5.

Coastal Water Temperatures

Place Temperature
Nantucket Island, MA 72.0 °F
Woods Hole, MA 71.1 °F
Fall River, MA 73.9 °F
Boston, MA 64.0 °F

Nearby Weather Stations